首页
METAR-TAF:

METAR-TAF

机场 :

Northolt, 英格兰

纬度: 51-33N, 经度: 000-25W, 海拔: 38米

当前天气观测

该预报发布于43分钟前的20:50 UTC
风速13节,风向北转东北
温度 14°C
湿度 72%
气压 1007 hPa
能见度10公里或以上

METAR: EGWU 032050Z AUTO 03013KT 9999 // BKN060/// 14/09 Q1007

时间: 22:33 (21:33 UTC)

预报

该预报发布于5小时和2分钟前的16:31 UTC
预报有效从03日的 18点(UTC)到 04日的 12点(UTC)
风速12节,风向北转东北
能见度10公里或以上
少量云层高于2500英尺
多云层高于4500英尺
几率 30% :
短暂存在
从 03日的 18点(UTC)到 03日的 23点(UTC)
能見度: 7000
小雨
成为
从 03日的 23点(UTC)到 04日的 02点(UTC)
散云层高于1000英尺
多云层高于4000英尺
短暂存在
从 03日的 23点(UTC)到 04日的 05点(UTC)
能見度: 7000
小雨
几率 30% :
短暂存在
从 04日的 03点(UTC)到 04日的 05点(UTC)
能見度: 4000
小雨, 毛毛雨
成为
从 04日的 05点(UTC)到 04日的 08点(UTC)
散云层高于1800英尺
成为
从 04日的 08点(UTC)到 04日的 10点(UTC)
散云层高于3000英尺

TAF: EGWU 031631Z 0318/0412 02012KT 9999 FEW025 BKN045 PROB30 TEMPO 0318/0323 7000 -RA BECMG 0323/0402 SCT010 BKN040 TEMPO 0323/0405 7000 -RA PROB30 TEMPO 0403/0405 4000 -RADZ BECMG 0405/0408 SCT018 BECMG 0408/0410 SCT030

超过4000个机场的气象观测和天气预报(METAR&TAF报告)。

可查询的气象台以黄色和红色小点在地图上表示。

将鼠标移到小点上方,可查看气象台名称。

然后点击查看天气观测和预报。

如需切换地图:点击带黑十字的绿色按钮放大地图;点击带横线的绿色按钮缩小地图;或者点击绿色箭头查看邻近地区的地图。


METAR-TAF: